Time;durP1;ratioP1;P1;durP2;ratioP2;P2;SDS_P1;SDS_P2;PMS_P1;PMS_P2;Temp;Humidity;BMP_temperature;BMP_pressure;BME280_temperature;BME280_humidity;BME280_pressure;Samples;Min_cycle;Max_cycle;Signal;HPM_P1;HPM_P2
2022/03/30 00:00:10;;;;;;;11.32;10.13;;;11.20;69.60;;;;;;5033122;28;20386;-78
2022/03/30 00:02:37;;;;;;;13.05;9.98;;;11.20;69.70;;;;;;5032234;28;20410;-78
2022/03/30 00:05:04;;;;;;;13.30;9.80;;;11.10;70.00;;;;;;5032883;28;20049;-78
2022/03/30 00:07:32;;;;;;;11.07;9.73;;;11.10;70.10;;;;;;5032652;28;20470;-78
2022/03/30 00:10:05;;;;;;;17.00;10.90;;;11.00;70.30;;;;;;5012217;28;20033;-78
2022/03/30 00:12:31;;;;;;;13.77;9.93;;;11.00;70.50;;;;;;5031863;28;20038;-77
2022/03/30 00:14:57;;;;;;;13.63;10.20;;;10.90;70.60;;;;;;5032849;28;20052;-78
2022/03/30 00:17:24;;;;;;;16.92;9.70;;;10.90;70.60;;;;;;5033241;28;20031;-78
2022/03/30 00:19:50;;;;;;;10.32;8.52;;;10.90;70.90;;;;;;5014973;28;20463;-76
2022/03/30 00:22:16;;;;;;;11.65;8.57;;;10.90;71.10;;;;;;5025240;28;20048;-78
2022/03/30 00:24:43;;;;;;;13.63;8.35;;;10.80;70.80;;;;;;5033275;28;20037;-78
2022/03/30 00:27:13;;;;;;;8.75;7.85;;;10.80;70.30;;;;;;5031819;28;20143;-79
2022/03/30 00:29:40;;;;;;;10.33;8.33;;;10.80;70.10;;;;;;5011596;28;20044;-78
2022/03/30 00:32:06;;;;;;;8.70;7.40;;;10.80;70.40;;;;;;5025180;28;20305;-78
2022/03/30 00:34:33;;;;;;;8.25;7.28;;;10.80;69.70;;;;;;5032479;28;20416;-78
2022/03/30 00:36:59;;;;;;;9.98;6.80;;;10.80;69.10;;;;;;5027804;28;20367;-79
2022/03/30 00:39:25;;;;;;;9.65;7.57;;;10.70;69.40;;;;;;5031615;28;20034;-79
2022/03/30 00:41:51;;;;;;;11.32;7.53;;;10.80;69.80;;;;;;5015140;28;20072;-77
2022/03/30 00:44:17;;;;;;;14.88;8.00;;;10.80;68.80;;;;;;5031761;28;20489;-79
2022/03/30 00:46:45;;;;;;;11.88;7.88;;;10.70;69.30;;;;;;5029388;28;20037;-79
2022/03/30 00:49:12;;;;;;;11.80;7.60;;;10.70;68.90;;;;;;5028329;28;20029;-78
2022/03/30 00:51:38;;;;;;;11.25;7.78;;;10.80;68.50;;;;;;5027068;28;20704;-79
2022/03/30 00:54:05;;;;;;;7.50;6.80;;;10.80;68.00;;;;;;5032511;28;20037;-79
2022/03/30 00:56:33;;;;;;;10.50;8.27;;;10.70;68.80;;;;;;5032865;28;20398;-79
2022/03/30 00:59:05;;;;;;;9.02;7.82;;;10.80;69.20;;;;;;5032324;28;20044;-78
2022/03/30 01:01:33;;;;;;;12.43;8.00;;;10.80;68.70;;;;;;5012716;28;20089;-79
2022/03/30 01:04:03;;;;;;;8.68;6.53;;;10.80;68.60;;;;;;5032271;28;20037;-79
2022/03/30 01:06:29;;;;;;;14.60;9.03;;;10.80;69.10;;;;;;5032459;28;20466;-78
2022/03/30 01:08:56;;;;;;;9.90;7.30;;;10.80;69.20;;;;;;5032294;28;20037;-78
2022/03/30 01:11:25;;;;;;;8.15;6.72;;;10.70;68.60;;;;;;5031047;28;20383;-79
2022/03/30 01:13:51;;;;;;;11.75;8.32;;;10.70;68.60;;;;;;5034300;28;20034;-77
2022/03/30 01:16:18;;;;;;;13.75;8.43;;;10.70;69.00;;;;;;5034971;28;20030;-78
2022/03/30 01:18:44;;;;;;;10.70;7.13;;;10.70;68.80;;;;;;5033685;28;20477;-78
2022/03/30 01:21:10;;;;;;;17.65;8.25;;;10.60;68.50;;;;;;5031080;28;20026;-78
2022/03/30 01:23:36;;;;;;;8.80;7.60;;;10.60;68.90;;;;;;5032016;28;20041;-79
2022/03/30 01:26:06;;;;;;;9.00;7.60;;;10.50;68.90;;;;;;5011091;28;20057;-79
2022/03/30 01:28:33;;;;;;;11.23;7.68;;;10.50;69.80;;;;;;5025922;28;20030;-78
2022/03/30 01:33:46;;;;;;;11.18;7.75;;;10.50;69.60;;;;;;5032012;28;20034;-79
2022/03/30 01:36:15;;;;;;;9.15;6.60;;;10.50;68.80;;;;;;5028604;28;20916;-77
2022/03/30 01:38:43;;;;;;;12.75;9.20;;;10.60;68.50;;;;;;5031857;28;20418;-79
2022/03/30 01:41:09;;;;;;;9.43;8.00;;;10.60;68.30;;;;;;5029202;28;20037;-79
2022/03/30 01:43:35;;;;;;;8.68;7.85;;;10.60;68.50;;;;;;5013423;28;20052;-79
2022/03/30 01:46:02;;;;;;;8.13;6.72;;;10.60;68.10;;;;;;5029875;28;20037;-77
2022/03/30 01:48:28;;;;;;;11.38;8.02;;;10.60;67.50;;;;;;5032084;28;20025;-79
2022/03/30 01:50:54;;;;;;;10.85;8.40;;;10.60;67.50;;;;;;5027374;28;20038;-78
2022/03/30 01:53:20;;;;;;;10.60;7.13;;;10.60;67.10;;;;;;5031511;28;20056;-79
2022/03/30 01:55:46;;;;;;;10.88;8.43;;;10.50;66.80;;;;;;5031826;28;20040;-78
2022/03/30 01:58:13;;;;;;;8.65;7.75;;;10.50;67.20;;;;;;5031503;28;20049;-78
2022/03/30 02:00:39;;;;;;;11.30;8.20;;;10.50;67.50;;;;;;5030796;28;20390;-79
2022/03/30 02:03:05;;;;;;;12.25;7.53;;;10.50;67.50;;;;;;5024429;28;20049;-78
2022/03/30 02:05:31;;;;;;;10.10;7.63;;;10.50;66.90;;;;;;5031857;28;20037;-78
2022/03/30 02:07:57;;;;;;;8.95;7.97;;;10.50;66.70;;;;;;5031545;28;20046;-78
2022/03/30 02:10:23;;;;;;;12.40;7.40;;;10.40;66.10;;;;;;5033455;28;20029;-79
2022/03/30 02:12:50;;;;;;;9.10;8.20;;;10.40;66.30;;;;;;5027869;28;20052;-76
2022/03/30 02:15:16;;;;;;;11.93;8.68;;;10.40;66.70;;;;;;5036199;28;20481;-78
2022/03/30 02:17:42;;;;;;;11.07;7.97;;;10.30;67.40;;;;;;5036094;28;20033;-78
2022/03/30 02:20:11;;;;;;;9.48;8.57;;;10.30;68.20;;;;;;5035808;28;20078;-78
2022/03/30 02:22:38;;;;;;;13.60;9.43;;;10.20;70.10;;;;;;5034491;28;20052;-78
2022/03/30 02:25:05;;;;;;;13.27;9.15;;;10.20;70.70;;;;;;5036094;28;20056;-78
2022/03/30 02:27:31;;;;;;;10.25;9.25;;;10.10;72.40;;;;;;5036075;28;20045;-79
2022/03/30 02:29:58;;;;;;;10.88;8.98;;;10.10;72.40;;;;;;5035869;28;20037;-79
2022/03/30 02:32:24;;;;;;;10.35;9.15;;;10.00;72.90;;;;;;5028024;28;20029;-79
2022/03/30 02:34:51;;;;;;;12.80;9.65;;;9.90;75.30;;;;;;5030701;28;20052;-77
2022/03/30 02:37:17;;;;;;;13.32;9.90;;;9.80;76.40;;;;;;5033512;28;20033;-79
2022/03/30 02:39:43;;;;;;;12.13;9.88;;;9.80;78.00;;;;;;5017286;28;20045;-79
2022/03/30 02:42:10;;;;;;;13.68;11.13;;;9.70;79.10;;;;;;5032301;28;20579;-80
2022/03/30 02:44:37;;;;;;;12.13;10.85;;;9.40;83.10;;;;;;5026869;28;20369;-78
2022/03/30 02:47:04;;;;;;;17.67;12.98;;;9.20;89.10;;;;;;5034656;28;20382;-78
2022/03/30 02:49:30;;;;;;;16.42;10.38;;;9.00;92.40;;;;;;5013210;28;20041;-80
2022/03/30 02:51:57;;;;;;;13.93;10.80;;;8.90;92.70;;;;;;5033233;28;20037;-78
2022/03/30 02:54:24;;;;;;;12.75;11.52;;;8.80;95.80;;;;;;5012997;28;20038;-78
2022/03/30 02:56:50;;;;;;;15.00;13.13;;;8.70;98.10;;;;;;5033867;28;20029;-76
2022/03/30 02:59:17;;;;;;;14.88;11.63;;;8.60;99.80;;;;;;5032591;28;20036;-78
2022/03/30 03:01:43;;;;;;;17.85;13.50;;;8.60;99.90;;;;;;5033371;28;20033;-78
2022/03/30 03:04:09;;;;;;;17.58;13.75;;;8.60;99.90;;;;;;5033703;28;20049;-78
2022/03/30 03:06:35;;;;;;;15.77;12.70;;;8.50;99.90;;;;;;5016800;28;20037;-79
2022/03/30 03:09:03;;;;;;;22.08;15.95;;;8.50;99.90;;;;;;5034293;28;20029;-79
2022/03/30 03:11:30;;;;;;;20.85;14.63;;;8.40;99.90;;;;;;5027299;28;20021;-79
2022/03/30 03:13:56;;;;;;;17.88;13.50;;;8.40;99.90;;;;;;5034113;28;20084;-78
2022/03/30 03:16:22;;;;;;;17.35;14.68;;;8.30;99.90;;;;;;5033270;28;20482;-78
2022/03/30 03:18:48;;;;;;;16.17;14.50;;;8.30;99.90;;;;;;5029190;28;20041;-78
2022/03/30 03:21:14;;;;;;;17.13;14.10;;;8.20;99.90;;;;;;5026621;28;20029;-78
2022/03/30 03:23:41;;;;;;;17.23;14.50;;;8.10;99.90;;;;;;5025656;28;20045;-78
2022/03/30 03:26:08;;;;;;;17.95;15.45;;;8.10;99.90;;;;;;5029998;28;20423;-78
2022/03/30 03:28:34;;;;;;;18.70;14.82;;;8.10;99.90;;;;;;5016450;28;20053;-77
2022/03/30 03:31:00;;;;;;;20.95;16.92;;;8.00;99.90;;;;;;5014862;28;20041;-77
2022/03/30 03:33:26;;;;;;;21.05;16.45;;;8.00;99.90;;;;;;5029082;28;20041;-79
2022/03/30 03:35:52;;;;;;;16.55;14.85;;;7.90;99.90;;;;;;5028202;28;20037;-77
2022/03/30 03:38:20;;;;;;;17.08;15.25;;;8.00;99.90;;;;;;5034051;28;20447;-79
2022/03/30 03:40:46;;;;;;;19.00;15.15;;;8.00;99.90;;;;;;5016152;28;20044;-79
2022/03/30 03:43:12;;;;;;;25.00;17.92;;;8.00;99.90;;;;;;5013950;28;20041;-78
2022/03/30 03:45:38;;;;;;;18.48;16.40;;;8.00;99.90;;;;;;5033799;28;20390;-79
2022/03/30 03:48:05;;;;;;;23.83;16.73;;;8.00;99.90;;;;;;5033572;28;20029;-79
2022/03/30 03:50:32;;;;;;;20.05;17.38;;;8.00;99.90;;;;;;5012338;28;20522;-77
2022/03/30 03:52:58;;;;;;;20.98;15.57;;;7.90;99.90;;;;;;5031650;28;20037;-79
2022/03/30 03:55:25;;;;;;;17.55;16.00;;;7.90;99.90;;;;;;5027795;28;20049;-78
2022/03/30 03:57:52;;;;;;;19.38;17.52;;;7.90;99.90;;;;;;5033178;28;20052;-77
2022/03/30 04:00:18;;;;;;;21.20;18.88;;;7.90;99.90;;;;;;5037128;28;20049;-78
2022/03/30 04:02:44;;;;;;;23.83;20.27;;;7.80;99.90;;;;;;5027071;28;20040;-78
2022/03/30 04:05:13;;;;;;;24.55;20.05;;;7.80;99.90;;;;;;5033017;28;20040;-79
2022/03/30 04:07:40;;;;;;;21.33;18.75;;;7.80;99.90;;;;;;5033154;28;20029;-78
2022/03/30 04:10:08;;;;;;;21.88;19.73;;;7.80;99.90;;;;;;5028752;28;20033;-78
2022/03/30 04:12:34;;;;;;;22.65;20.45;;;7.70;99.90;;;;;;5026662;28;20040;-78
2022/03/30 04:15:01;;;;;;;22.23;19.95;;;7.60;99.90;;;;;;5029726;28;20029;-77
2022/03/30 04:17:27;;;;;;;23.20;20.92;;;7.60;99.90;;;;;;5028544;28;20387;-77
2022/03/30 04:19:53;;;;;;;25.08;20.83;;;7.60;99.90;;;;;;5031888;28;20028;-77
2022/03/30 04:22:20;;;;;;;22.80;20.40;;;7.60;99.90;;;;;;5031503;28;20462;-79
2022/03/30 04:24:46;;;;;;;22.00;19.85;;;7.60;99.90;;;;;;5032585;28;20033;-78
2022/03/30 04:27:12;;;;;;;23.15;20.88;;;7.50;99.90;;;;;;5032852;28;20045;-78
2022/03/30 04:29:39;;;;;;;24.65;22.25;;;7.50;99.90;;;;;;5033569;28;20498;-79
2022/03/30 04:32:05;;;;;;;24.92;22.40;;;7.50;99.90;;;;;;5012905;28;20046;-79
2022/03/30 04:34:31;;;;;;;23.55;20.35;;;7.50;99.90;;;;;;5032664;28;20481;-78
2022/03/30 04:36:58;;;;;;;23.80;21.48;;;7.50;99.90;;;;;;5027170;28;20056;-77
2022/03/30 04:39:24;;;;;;;24.15;21.77;;;7.60;99.90;;;;;;5011418;28;20033;-79
2022/03/30 04:41:50;;;;;;;28.60;23.92;;;7.60;99.90;;;;;;5025591;28;20029;-78
2022/03/30 04:44:18;;;;;;;24.63;22.10;;;7.70;99.90;;;;;;5032261;28;20037;-81
2022/03/30 04:46:45;;;;;;;24.65;22.15;;;7.80;99.90;;;;;;5030241;28;20040;-81
2022/03/30 04:49:11;;;;;;;25.02;22.40;;;7.80;99.90;;;;;;5032415;28;20044;-82
2022/03/30 04:51:37;;;;;;;25.67;22.08;;;7.90;99.90;;;;;;5027116;28;20485;-79
2022/03/30 04:54:03;;;;;;;27.92;22.45;;;7.90;99.90;;;;;;5026098;28;20398;-80
2022/03/30 04:56:30;;;;;;;24.05;21.42;;;7.90;99.90;;;;;;5032773;28;20037;-80
2022/03/30 04:58:56;;;;;;;23.92;21.15;;;7.90;99.90;;;;;;5031759;28;20037;-79
2022/03/30 05:01:22;;;;;;;23.75;21.27;;;7.90;99.90;;;;;;5032316;28;20396;-79
2022/03/30 05:03:48;;;;;;;25.05;22.42;;;7.80;99.90;;;;;;4994280;28;20057;-80
2022/03/30 05:06:14;;;;;;;26.80;24.23;;;7.80;99.90;;;;;;5030456;28;20044;-79
2022/03/30 05:08:40;;;;;;;29.90;24.92;;;7.90;99.90;;;;;;5031136;28;20490;-80
2022/03/30 05:11:07;;;;;;;28.60;24.42;;;7.90;99.90;;;;;;5031791;28;20036;-80
2022/03/30 05:13:33;;;;;;;41.72;25.30;;;7.90;99.90;;;;;;5030380;28;20029;-79
2022/03/30 05:15:59;;;;;;;33.85;25.73;;;7.90;99.90;;;;;;5012977;28;20514;-79
2022/03/30 05:18:25;;;;;;;34.67;28.10;;;7.90;99.90;;;;;;5029713;28;20379;-80
2022/03/30 05:20:53;;;;;;;27.85;25.02;;;7.90;99.90;;;;;;5030926;28;20037;-79
2022/03/30 05:23:20;;;;;;;32.45;27.63;;;7.80;99.90;;;;;;5030601;28;20037;-80
2022/03/30 05:25:46;;;;;;;32.00;28.88;;;7.70;99.90;;;;;;5029137;28;20053;-80
2022/03/30 05:28:12;;;;;;;42.25;31.08;;;7.70;99.90;;;;;;5024705;28;20033;-79
2022/03/30 05:30:39;;;;;;;34.50;31.10;;;7.70;99.90;;;;;;5013170;28;20048;-79
2022/03/30 05:33:05;;;;;;;34.90;31.27;;;7.80;99.90;;;;;;5013032;28;20033;-78
2022/03/30 05:35:31;;;;;;;36.05;31.92;;;7.70;99.90;;;;;;5028316;28;20030;-80
2022/03/30 05:37:57;;;;;;;41.13;33.70;;;7.70;99.90;;;;;;5034086;28;20029;-79
2022/03/30 05:40:24;;;;;;;35.33;31.58;;;7.70;99.90;;;;;;5032632;28;20036;-85
2022/03/30 05:42:50;;;;;;;39.15;35.30;;;7.60;99.90;;;;;;5033882;28;20041;-87
2022/03/30 05:45:16;;;;;;;39.80;35.10;;;7.60;99.90;;;;;;4993564;28;20037;-85
2022/03/30 05:47:43;;;;;;;38.92;34.70;;;7.60;99.90;;;;;;5038331;28;20351;-78
2022/03/30 05:50:10;;;;;;;42.45;36.03;;;7.60;99.90;;;;;;5028526;28;20447;-78
2022/03/30 05:52:36;;;;;;;43.60;37.55;;;7.70;99.90;;;;;;5028336;28;20036;-78
2022/03/30 05:55:04;;;;;;;41.38;37.20;;;7.60;99.90;;;;;;5034835;28;20061;-77
2022/03/30 05:57:30;;;;;;;41.75;37.38;;;7.60;99.90;;;;;;5014600;28;20029;-78
2022/03/30 05:59:58;;;;;;;45.03;38.70;;;7.60;99.90;;;;;;5031734;28;20048;-78
2022/03/30 06:02:24;;;;;;;45.08;40.30;;;7.50;99.90;;;;;;5029991;28;20072;-78
2022/03/30 06:04:50;;;;;;;45.97;41.25;;;7.40;99.90;;;;;;5027903;28;20037;-78
2022/03/30 06:07:17;;;;;;;44.92;40.35;;;7.50;99.90;;;;;;5027638;28;20030;-78
2022/03/30 06:09:43;;;;;;;50.75;41.80;;;7.40;99.90;;;;;;5031868;28;20044;-79
2022/03/30 06:12:11;;;;;;;48.58;43.58;;;7.40;99.90;;;;;;5012676;28;20037;-78
2022/03/30 06:14:37;;;;;;;53.53;45.08;;;7.40;99.90;;;;;;5032034;28;20049;-78
2022/03/30 06:17:05;;;;;;;53.08;44.78;;;7.40;99.90;;;;;;5028571;28;20038;-78
2022/03/30 06:19:35;;;;;;;50.15;44.78;;;7.30;99.90;;;;;;5032280;28;20037;-78
2022/03/30 06:22:08;;;;;;;52.03;44.80;;;7.30;99.90;;;;;;5030359;28;20034;-78
2022/03/30 06:24:36;;;;;;;50.10;44.53;;;7.30;99.90;;;;;;5031429;28;20037;-78
2022/03/30 06:27:04;;;;;;;50.20;44.70;;;7.30;99.90;;;;;;5031350;28;20046;-78
2022/03/30 06:29:35;;;;;;;56.63;47.42;;;7.30;99.90;;;;;;5032280;28;20048;-78
2022/03/30 06:32:02;;;;;;;52.42;46.38;;;7.30;99.90;;;;;;5029845;28;20038;-78
2022/03/30 06:34:29;;;;;;;72.55;50.83;;;7.30;99.90;;;;;;5010612;28;20052;-79
2022/03/30 06:36:55;;;;;;;61.10;49.15;;;7.30;99.90;;;;;;5027428;28;20082;-77
2022/03/30 06:39:22;;;;;;;56.33;49.45;;;7.30;99.90;;;;;;5032066;28;20029;-78
2022/03/30 06:41:48;;;;;;;59.53;48.92;;;7.30;99.90;;;;;;5030373;28;20034;-77
2022/03/30 06:44:16;;;;;;;51.08;45.50;;;7.30;99.90;;;;;;5026814;28;20037;-78
2022/03/30 06:46:43;;;;;;;70.07;49.70;;;7.30;99.90;;;;;;5028274;28;20474;-78
2022/03/30 06:49:10;;;;;;;57.92;48.58;;;7.20;99.90;;;;;;5029314;28;20036;-78
2022/03/30 06:51:37;;;;;;;59.63;50.15;;;7.20;99.90;;;;;;5025406;28;20025;-78
2022/03/30 06:54:04;;;;;;;54.72;48.22;;;7.20;99.90;;;;;;5026499;28;20034;-80
2022/03/30 06:56:31;;;;;;;60.10;51.47;;;7.20;99.90;;;;;;5018273;28;20049;-77
2022/03/30 06:58:57;;;;;;;61.20;50.58;;;7.10;99.90;;;;;;5034964;28;20033;-78
2022/03/30 07:01:23;;;;;;;57.15;50.92;;;7.10;99.90;;;;;;5025212;28;20041;-78
2022/03/30 07:03:50;;;;;;;58.88;52.63;;;7.10;99.90;;;;;;5031189;28;20037;-78
2022/03/30 07:06:17;;;;;;;63.78;53.40;;;7.10;99.90;;;;;;5037540;28;20454;-77
2022/03/30 07:11:28;;;;;;;58.78;52.60;;;7.10;99.90;;;;;;5032185;28;20037;-78
2022/03/30 07:13:56;;;;;;;62.33;54.67;;;7.00;99.90;;;;;;5034982;28;20033;-88
2022/03/30 07:16:24;;;;;;;63.22;56.35;;;7.00;99.90;;;;;;5034503;28;20029;-76
2022/03/30 07:18:50;;;;;;;66.78;59.50;;;7.00;99.90;;;;;;5036070;28;20046;-76
2022/03/30 07:21:17;;;;;;;67.28;60.30;;;7.00;99.90;;;;;;5036579;28;20041;-76
2022/03/30 07:23:43;;;;;;;72.00;62.92;;;7.00;99.90;;;;;;5031913;28;20038;-77
2022/03/30 07:26:10;;;;;;;74.85;63.30;;;7.00;99.90;;;;;;5034216;28;20038;-77
2022/03/30 07:28:37;;;;;;;71.15;61.95;;;7.00;99.90;;;;;;5034368;28;20037;-76
2022/03/30 07:31:04;;;;;;;72.03;64.10;;;7.00;99.90;;;;;;5039386;28;20219;-77
2022/03/30 07:33:32;;;;;;;70.80;63.25;;;7.00;99.90;;;;;;5033424;28;20040;-76
2022/03/30 07:35:58;;;;;;;73.47;62.78;;;7.00;99.90;;;;;;5033852;28;20044;-77
2022/03/30 07:38:25;;;;;;;72.45;64.82;;;7.00;99.90;;;;;;5030147;28;20473;-76
2022/03/30 07:40:53;;;;;;;71.78;63.97;;;7.00;99.90;;;;;;5034888;28;20040;-77
2022/03/30 07:43:19;;;;;;;80.10;69.53;;;7.00;99.90;;;;;;5028974;28;20058;-77
2022/03/30 07:45:46;;;;;;;81.15;67.70;;;7.10;99.90;;;;;;5033894;28;20037;-78
2022/03/30 07:48:12;;;;;;;82.82;70.53;;;7.00;99.90;;;;;;5000395;28;20044;-79
2022/03/30 07:50:39;;;;;;;82.30;71.40;;;7.10;99.90;;;;;;5028351;28;20037;-77
2022/03/30 07:53:08;;;;;;;75.43;67.25;;;7.00;99.90;;;;;;5033479;28;20034;-77
2022/03/30 07:55:35;;;;;;;81.28;68.22;;;7.00;99.90;;;;;;5016540;28;20029;-76
2022/03/30 07:58:02;;;;;;;77.78;69.75;;;7.00;99.90;;;;;;5037571;28;20481;-76
2022/03/30 08:00:29;;;;;;;83.30;74.30;;;7.00;99.90;;;;;;5034426;28;20389;-76
2022/03/30 08:02:55;;;;;;;80.22;71.35;;;7.00;99.90;;;;;;5033315;28;20029;-78
2022/03/30 08:05:22;;;;;;;79.97;71.47;;;7.00;99.90;;;;;;5033797;28;20463;-77
2022/03/30 08:07:51;;;;;;;79.43;70.93;;;7.00;99.90;;;;;;5030252;28;20040;-76
2022/03/30 08:10:17;;;;;;;83.25;72.03;;;7.00;99.90;;;;;;5033612;28;20045;-76
2022/03/30 08:12:44;;;;;;;77.93;69.55;;;7.10;99.90;;;;;;5032501;28;20478;-75
2022/03/30 08:15:15;;;;;;;79.57;71.10;;;7.10;99.90;;;;;;5032315;28;20030;-77
2022/03/30 08:17:42;;;;;;;60.13;53.03;;;7.10;99.90;;;;;;5030350;28;20474;-76
2022/03/30 08:20:11;;;;;;;78.80;70.68;;;7.00;99.90;;;;;;5027419;28;20032;-76
2022/03/30 08:22:37;;;;;;;82.00;71.57;;;7.10;99.90;;;;;;5030659;28;20025;-76
2022/03/30 08:25:10;;;;;;;84.85;70.95;;;7.00;99.90;;;;;;5033061;28;20064;-76
2022/03/30 08:27:36;;;;;;;90.55;72.65;;;7.00;99.90;;;;;;5030284;28;20049;-81
2022/03/30 08:30:05;;;;;;;79.68;71.22;;;7.10;99.90;;;;;;5029260;28;20049;-82
2022/03/30 08:32:32;;;;;;;81.32;72.88;;;7.10;99.90;;;;;;5026706;28;20036;-82
2022/03/30 08:34:59;;;;;;;81.72;72.63;;;7.20;99.90;;;;;;5012848;28;20040;-82
2022/03/30 08:37:25;;;;;;;78.03;69.45;;;7.10;99.90;;;;;;5029398;28;20040;-81
2022/03/30 08:39:53;;;;;;;78.97;70.57;;;7.10;99.90;;;;;;5031076;28;20029;-81
2022/03/30 08:42:20;;;;;;;83.32;71.95;;;7.10;99.90;;;;;;5032156;28;20029;-80
2022/03/30 08:44:49;;;;;;;77.15;68.85;;;7.00;99.90;;;;;;5033645;28;20033;-84
2022/03/30 08:47:15;;;;;;;82.32;69.57;;;7.00;99.90;;;;;;5032539;28;20029;-80
2022/03/30 08:49:44;;;;;;;81.22;71.32;;;7.00;99.90;;;;;;5030372;28;20044;-80
2022/03/30 08:52:12;;;;;;;83.55;74.57;;;7.00;99.90;;;;;;5014402;28;20037;-81
2022/03/30 08:54:43;;;;;;;84.60;74.72;;;7.10;99.90;;;;;;5014634;28;20038;-80
2022/03/30 08:57:09;;;;;;;;;;;7.10;99.90;;;;;;5015629;28;20513;-80
2022/03/30 08:59:35;;;;;;;81.80;71.35;;;7.10;99.90;;;;;;5016596;28;19909;-80
2022/03/30 09:02:02;;;;;;;94.03;75.15;;;7.00;99.90;;;;;;5024079;28;20038;-81
2022/03/30 09:04:29;;;;;;;88.70;77.25;;;7.10;99.90;;;;;;5031251;28;20052;-80
2022/03/30 09:06:57;;;;;;;83.60;74.47;;;7.10;99.90;;;;;;5027240;28;20052;-86
2022/03/30 09:09:42;;;;;;;83.88;75.03;;;7.10;99.90;;;;;;5020510;28;20037;-80
2022/03/30 09:12:10;;;;;;;80.97;72.55;;;7.10;99.90;;;;;;5032960;28;20490;-80
2022/03/30 09:14:39;;;;;;;95.03;77.65;;;7.20;99.90;;;;;;5037411;28;20029;-81
2022/03/30 09:17:07;;;;;;;85.45;76.07;;;7.20;99.90;;;;;;5033621;28;20025;-81
2022/03/30 09:19:36;;;;;;;89.50;73.70;;;7.20;99.90;;;;;;5034166;28;20049;-80
2022/03/30 09:22:05;;;;;;;82.80;74.38;;;7.20;99.90;;;;;;5032188;28;20025;-80
2022/03/30 09:24:34;;;;;;;81.38;72.82;;;7.20;99.90;;;;;;5031423;28;20040;-79
2022/03/30 09:27:05;;;;;;;84.22;71.15;;;7.20;99.90;;;;;;5032724;28;20042;-79
2022/03/30 09:29:34;;;;;;;79.10;68.65;;;7.10;99.90;;;;;;5033091;28;20050;-80
2022/03/30 09:32:06;;;;;;;82.00;69.18;;;7.20;99.90;;;;;;5029215;28;20044;-79
2022/03/30 09:34:34;;;;;;;88.60;74.20;;;7.20;99.90;;;;;;5015226;28;20045;-80
2022/03/30 09:37:01;;;;;;;80.45;71.97;;;7.30;99.90;;;;;;5014356;28;20048;-80
2022/03/30 09:39:34;;;;;;;83.80;74.82;;;7.30;99.90;;;;;;5030008;28;20044;-79
2022/03/30 09:42:02;;;;;;;83.47;74.60;;;7.30;99.90;;;;;;5013681;28;20030;-79
2022/03/30 09:44:30;;;;;;;84.72;73.82;;;7.50;99.90;;;;;;5014422;28;20038;-78
2022/03/30 09:47:05;;;;;;;80.97;69.28;;;7.50;99.90;;;;;;5013754;28;20041;-83
2022/03/30 09:49:43;;;;;;;75.15;67.22;;;7.50;99.90;;;;;;5015692;28;20064;-78
2022/03/30 09:52:21;;;;;;;75.75;67.55;;;7.50;99.90;;;;;;5026931;28;20068;-79
2022/03/30 09:54:53;;;;;;;79.40;70.90;;;7.60;99.90;;;;;;5031609;28;20037;-80
2022/03/30 09:57:34;;;;;;;81.97;67.53;;;7.70;99.90;;;;;;5033109;28;20041;-82
2022/03/30 10:00:14;;;;;;;79.65;69.25;;;7.60;99.90;;;;;;5030829;28;20026;-79
2022/03/30 10:02:47;;;;;;;79.18;70.57;;;7.70;99.90;;;;;;5012683;28;20046;-78
2022/03/30 10:05:16;;;;;;;74.38;65.35;;;7.80;99.90;;;;;;5032579;28;20471;-81
2022/03/30 10:07:42;;;;;;;69.22;61.50;;;7.70;99.90;;;;;;5032034;28;20026;-80
2022/03/30 10:10:11;;;;;;;68.72;61.50;;;7.80;99.90;;;;;;5028928;28;20034;-80
2022/03/30 10:12:38;;;;;;;73.55;62.75;;;8.00;99.90;;;;;;5031139;28;20029;-80
2022/03/30 10:15:06;;;;;;;71.80;64.28;;;8.00;99.90;;;;;;5031537;28;20044;-80
2022/03/30 10:17:32;;;;;;;63.45;56.70;;;8.10;99.90;;;;;;5032130;28;20028;-80
2022/03/30 10:20:01;;;;;;;67.85;55.70;;;8.00;99.90;;;;;;5015269;28;20520;-80
2022/03/30 10:22:55;;;;;;;58.33;51.35;;;7.90;99.90;;;;;;5031617;28;20037;-80
2022/03/30 10:25:39;;;;;;;58.92;51.20;;;7.90;99.90;;;;;;5026168;28;20041;-81
2022/03/30 10:28:15;;;;;;;60.67;49.75;;;7.90;99.90;;;;;;5029684;28;20097;-80
2022/03/30 10:30:43;;;;;;;53.20;47.60;;;7.80;99.90;;;;;;5037972;28;20383;-80
2022/03/30 10:33:11;;;;;;;51.60;46.25;;;7.80;99.90;;;;;;5042941;28;20040;-80
2022/03/30 10:35:46;;;;;;;57.13;49.72;;;8.00;99.90;;;;;;5037587;28;20041;-80
2022/03/30 10:38:13;;;;;;;53.95;48.28;;;8.00;99.90;;;;;;5035831;28;20451;-81
2022/03/30 10:40:41;;;;;;;47.28;42.55;;;8.10;99.90;;;;;;5030484;28;20037;-81
2022/03/30 10:43:11;;;;;;;51.25;46.03;;;8.10;99.90;;;;;;5034691;28;20029;-80
2022/03/30 10:45:44;;;;;;;51.40;46.05;;;8.10;99.90;;;;;;5034440;28;20040;-80
2022/03/30 10:48:12;;;;;;;54.30;46.10;;;8.20;99.90;;;;;;5016640;28;20053;-80
2022/03/30 10:51:06;;;;;;;52.03;46.40;;;8.20;99.90;;;;;;5036115;28;20029;-80
2022/03/30 10:53:35;;;;;;;52.17;43.28;;;8.30;99.90;;;;;;5013106;28;20037;-81
2022/03/30 10:56:07;;;;;;;45.97;41.35;;;8.20;99.90;;;;;;5035148;28;20033;-81
2022/03/30 10:58:58;;;;;;;48.42;43.40;;;8.20;99.90;;;;;;5035697;28;20033;-81
2022/03/30 11:01:26;;;;;;;46.83;42.33;;;8.30;99.90;;;;;;5032779;28;20045;-80
2022/03/30 11:03:56;;;;;;;46.50;41.50;;;8.40;99.90;;;;;;5026015;28;20033;-80
2022/03/30 11:06:23;;;;;;;50.77;43.53;;;8.40;99.90;;;;;;5023763;28;20033;-80
2022/03/30 11:08:51;;;;;;;42.95;38.58;;;8.50;99.90;;;;;;5035346;28;20038;-81
2022/03/30 11:11:39;;;;;;;46.53;41.38;;;8.60;99.90;;;;;;5015694;28;20498;-80
2022/03/30 11:14:27;;;;;;;45.90;40.17;;;8.50;99.90;;;;;;5014943;28;20049;-81
2022/03/30 11:17:13;;;;;;;43.03;38.78;;;8.70;99.90;;;;;;5033871;28;20033;-81
2022/03/30 11:19:54;;;;;;;44.38;39.55;;;8.90;99.90;;;;;;5028273;28;20036;-81
2022/03/30 11:22:39;;;;;;;43.88;39.17;;;9.00;99.90;;;;;;5033330;28;20378;-81
2022/03/30 11:25:10;;;;;;;39.70;35.55;;;9.10;99.90;;;;;;5030801;28;20037;-81
2022/03/30 11:27:37;;;;;;;49.15;36.72;;;9.10;99.90;;;;;;5029829;28;20478;-81
2022/03/30 11:30:20;;;;;;;42.08;35.67;;;9.00;99.90;;;;;;5030996;28;20386;-80
2022/03/30 11:32:49;;;;;;;39.78;35.58;;;9.00;99.90;;;;;;5031330;28;20030;-82
2022/03/30 11:35:17;;;;;;;37.42;33.33;;;9.00;99.90;;;;;;5030126;28;20029;-83
2022/03/30 11:37:49;;;;;;;35.28;31.65;;;9.00;99.90;;;;;;5015487;28;20041;-82
2022/03/30 11:40:18;;;;;;;37.20;33.15;;;8.90;99.90;;;;;;5031779;28;20037;-83
2022/03/30 11:42:48;;;;;;;36.10;31.80;;;9.10;99.90;;;;;;5014148;28;20044;-81
2022/03/30 11:45:19;;;;;;;35.60;31.92;;;9.30;99.90;;;;;;5000707;28;20482;-82
2022/03/30 11:47:52;;;;;;;;;;;9.30;99.90;;;;;;5034418;28;20386;-83
2022/03/30 11:50:33;;;;;;;33.25;29.50;;;9.40;99.90;;;;;;5016372;28;19916;-82
2022/03/30 11:53:10;;;;;;;35.05;31.45;;;9.50;99.90;;;;;;5015603;28;20044;-83
2022/03/30 11:55:51;;;;;;;32.53;29.33;;;9.70;99.90;;;;;;5032462;28;20045;-82
2022/03/30 11:58:25;;;;;;;43.50;30.42;;;10.00;99.90;;;;;;5033281;28;20034;-83
2022/03/30 12:00:52;;;;;;;31.27;28.10;;;10.10;99.90;;;;;;5033655;28;20033;-84
2022/03/30 12:03:19;;;;;;;34.25;27.23;;;10.10;99.90;;;;;;5015174;28;20029;-82
2022/03/30 12:05:46;;;;;;;29.92;26.88;;;10.10;99.90;;;;;;5028970;28;20031;-81
2022/03/30 12:08:13;;;;;;;29.63;25.70;;;10.20;99.90;;;;;;5034494;28;20463;-81
2022/03/30 12:10:39;;;;;;;37.38;28.05;;;10.40;99.90;;;;;;5015758;28;20045;-81
2022/03/30 12:13:05;;;;;;;30.90;27.50;;;10.50;99.90;;;;;;5031749;28;20363;-81
2022/03/30 12:15:31;;;;;;;37.47;28.67;;;10.50;99.90;;;;;;5030330;28;20060;-80
2022/03/30 12:17:59;;;;;;;27.83;24.75;;;10.50;99.90;;;;;;5032083;28;20030;-81
2022/03/30 12:20:32;;;;;;;31.40;27.98;;;10.50;99.90;;;;;;5015908;28;20053;-81
2022/03/30 12:23:04;;;;;;;29.88;26.27;;;10.40;99.90;;;;;;5014283;28;20045;-84
2022/03/30 12:25:36;;;;;;;34.47;28.48;;;10.10;99.90;;;;;;5035861;28;20056;-80
2022/03/30 12:28:04;;;;;;;35.05;29.83;;;9.90;99.90;;;;;;5033738;28;20030;-82
2022/03/30 12:30:36;;;;;;;33.22;29.70;;;9.80;99.90;;;;;;5012560;28;20390;-81
2022/03/30 12:33:02;;;;;;;33.03;28.77;;;9.90;99.90;;;;;;5012458;28;20037;-80
2022/03/30 12:35:33;;;;;;;38.65;29.35;;;9.90;99.90;;;;;;5026095;28;20083;-82
2022/03/30 12:38:11;;;;;;;33.95;29.40;;;10.00;99.90;;;;;;5015756;28;20040;-81
2022/03/30 12:40:41;;;;;;;34.40;30.08;;;10.00;99.90;;;;;;5029890;28;20021;-82
2022/03/30 12:43:08;;;;;;;42.97;33.05;;;9.90;99.90;;;;;;5025804;28;20053;-81
2022/03/30 12:45:53;;;;;;;37.70;30.17;;;9.80;99.90;;;;;;5023357;28;20037;-80
2022/03/30 12:48:29;;;;;;;35.88;32.00;;;9.70;99.90;;;;;;5027502;28;20413;-79